createdAt,value
2023-01-17T00:01:13.152Z,94.75
2023-01-17T00:06:35.302Z,94.75
2023-01-17T00:11:38.817Z,94.83
2023-01-17T00:16:42.547Z,94.77
2023-01-17T00:22:04.689Z,94.86
2023-01-17T00:27:14.448Z,94.84
2023-01-17T00:32:17.763Z,95.02
2023-01-17T00:37:21.286Z,94.92
2023-01-17T00:42:24.900Z,94.86
2023-01-17T00:47:47.149Z,94.94
2023-01-17T00:53:09.415Z,95.09
2023-01-17T00:58:31.762Z,95.22
2023-01-17T01:03:54.225Z,95.26
2023-01-17T01:09:16.477Z,95.22
2023-01-17T01:14:38.423Z,95.41
2023-01-17T01:20:00.599Z,95.26
2023-01-17T01:25:23.137Z,95.29
2023-01-17T01:30:45.399Z,95.26
2023-01-17T01:35:54.035Z,95.16
2023-01-17T01:40:57.547Z,95.35
2023-01-17T01:46:01.647Z,95.53
2023-01-17T01:51:10.219Z,95.29
2023-01-17T01:56:15.675Z,95.29
2023-01-17T02:01:19.812Z,95.39
2023-01-17T02:06:32.939Z,95.43
2023-01-17T02:11:40.970Z,95.45
2023-01-17T02:16:51.849Z,95.19
2023-01-17T02:22:07.552Z,95.20
2023-01-17T02:27:25.919Z,95.35
2023-01-17T02:32:52.167Z,95.23
2023-01-17T02:38:33.265Z,95.15
2023-01-17T02:43:37.900Z,95.10
2023-01-17T02:48:42.368Z,95.04
2023-01-17T02:53:48.719Z,95.11
2023-01-17T02:59:10.773Z,94.98
2023-01-17T03:04:21.560Z,95.05
2023-01-17T03:09:26.649Z,95.05
2023-01-17T03:14:33.605Z,94.91
2023-01-17T03:19:37.016Z,94.94
2023-01-17T03:24:41.047Z,94.83
2023-01-17T03:29:44.462Z,94.74
2023-01-17T03:34:47.977Z,94.79
2023-01-17T03:39:51.590Z,94.79
2023-01-17T03:44:55.116Z,94.78
2023-01-17T03:49:58.732Z,94.79
2023-01-17T03:55:03.060Z,94.57
2023-01-17T04:00:07.219Z,94.83
2023-01-17T04:05:10.707Z,94.80
2023-01-17T04:10:14.224Z,94.95
2023-01-17T04:15:18.148Z,94.69
2023-01-17T04:20:33.859Z,94.76
2023-01-17T04:25:37.676Z,94.68
2023-01-17T04:30:41.246Z,94.72
2023-01-17T04:35:44.701Z,94.90
2023-01-17T04:40:48.939Z,94.81
2023-01-17T04:45:59.009Z,94.57
2023-01-17T04:51:04.423Z,94.33
2023-01-17T04:56:08.290Z,94.60
2023-01-17T05:01:11.799Z,94.65
2023-01-17T05:06:15.935Z,94.62
2023-01-17T05:11:19.445Z,94.63
2023-01-17T05:16:22.966Z,94.76
2023-01-17T05:21:26.681Z,94.93
2023-01-17T05:26:30.298Z,94.96
2023-01-17T05:31:33.827Z,95.08
2023-01-17T05:36:37.334Z,95.04
2023-01-17T05:41:40.948Z,95.21
2023-01-17T05:46:44.463Z,95.09
2023-01-17T05:51:48.184Z,95.17
2023-01-17T05:56:51.699Z,95.40
2023-01-17T06:01:55.114Z,95.20
2023-01-17T06:06:58.731Z,95.29
2023-01-17T06:12:02.266Z,95.44
2023-01-17T06:17:05.861Z,95.28
2023-01-17T06:22:09.585Z,95.54
2023-01-17T06:27:13.001Z,95.62
2023-01-17T06:32:16.721Z,95.55
2023-01-17T06:37:20.133Z,95.67
2023-01-17T06:42:23.868Z,95.72
2023-01-17T06:47:27.364Z,95.68
2023-01-17T06:52:30.987Z,95.89
2023-01-17T06:57:34.703Z,95.60
2023-01-17T07:02:38.423Z,95.89
2023-01-17T07:07:42.042Z,95.94
2023-01-17T07:12:45.772Z,95.83
2023-01-17T07:17:49.277Z,95.76
2023-01-17T07:22:52.796Z,96.04
2023-01-17T07:27:58.003Z,96.11
2023-01-17T07:33:04.435Z,95.84
2023-01-17T07:38:11.659Z,95.71
2023-01-17T07:43:15.161Z,95.77
2023-01-17T07:48:20.712Z,95.69
2023-01-17T07:53:26.243Z,95.74
2023-01-17T07:58:29.798Z,95.72
2023-01-17T08:03:36.832Z,95.83
2023-01-17T08:08:40.422Z,95.70
2023-01-17T08:13:44.024Z,95.43
2023-01-17T08:18:47.540Z,95.56
2023-01-17T08:23:52.594Z,95.54
2023-01-17T08:29:00.759Z,95.31
2023-01-17T08:34:04.742Z,95.32
2023-01-17T08:39:08.160Z,95.33
2023-01-17T08:44:49.098Z,95.44
2023-01-17T08:49:52.977Z,95.34
2023-01-17T08:54:56.692Z,95.34
2023-01-17T09:00:00.181Z,95.11
2023-01-17T09:05:04.031Z,94.81
2023-01-17T09:10:07.962Z,94.81
2023-01-17T09:15:14.842Z,95.08
2023-01-17T09:20:18.370Z,94.86
2023-01-17T09:25:22.602Z,94.75
2023-01-17T09:30:26.372Z,94.70
2023-01-17T09:35:30.146Z,94.21
2023-01-17T09:40:34.577Z,94.15
2023-01-17T09:45:37.851Z,94.26
2023-01-17T09:50:53.700Z,94.39
2023-01-17T09:56:10.008Z,93.83
2023-01-17T10:01:28.617Z,93.79
2023-01-17T10:07:18.188Z,93.70
2023-01-17T10:12:47.903Z,93.36
2023-01-17T10:18:01.657Z,93.22
2023-01-17T10:23:29.962Z,93.26
2023-01-17T10:28:36.029Z,92.97
2023-01-17T10:34:19.282Z,92.77
2023-01-17T10:39:26.584Z,92.79
2023-01-17T10:44:56.820Z,92.76
2023-01-17T10:50:05.379Z,92.48
2023-01-17T10:55:34.503Z,92.25
2023-01-17T11:01:01.180Z,91.81
2023-01-17T11:06:28.098Z,91.68
2023-01-17T11:11:33.980Z,91.16
2023-01-17T11:16:37.481Z,91.16
2023-01-17T11:21:52.571Z,91.20
2023-01-17T11:26:57.842Z,90.57
2023-01-17T11:32:30.215Z,90.60
2023-01-17T11:37:35.591Z,90.47
2023-01-17T11:42:39.500Z,89.75
2023-01-17T11:47:43.016Z,89.85
2023-01-17T11:52:46.544Z,89.95
2023-01-17T11:57:51.485Z,89.71
2023-01-17T12:03:17.025Z,89.39
2023-01-17T12:08:23.086Z,89.72
2023-01-17T12:13:59.062Z,89.43
2023-01-17T12:19:23.260Z,89.04
2023-01-17T12:24:51.765Z,88.94
2023-01-17T12:30:12.795Z,88.67
2023-01-17T12:35:41.741Z,88.75
2023-01-17T12:40:53.820Z,88.29
2023-01-17T12:45:58.973Z,88.16
2023-01-17T12:51:18.567Z,88.05
2023-01-17T12:56:35.190Z,88.04
2023-01-17T13:01:43.378Z,87.63
2023-01-17T13:07:01.068Z,87.81
2023-01-17T13:12:17.209Z,87.67
2023-01-17T13:17:45.176Z,87.26
2023-01-17T13:22:51.208Z,87.27
2023-01-17T13:28:03.460Z,87.21
2023-01-17T13:33:28.282Z,87.22
2023-01-17T13:38:43.165Z,87.25
2023-01-17T13:44:06.536Z,87.16
2023-01-17T13:49:34.831Z,87.20
2023-01-17T13:54:45.104Z,86.96
2023-01-17T13:59:48.739Z,86.96
2023-01-17T14:05:12.416Z,86.94
2023-01-17T14:10:31.181Z,86.91
2023-01-17T14:15:47.500Z,86.46
2023-01-17T14:21:03.605Z,86.24
2023-01-17T14:26:32.014Z,86.40
2023-01-17T14:31:35.638Z,86.40
2023-01-17T14:36:39.551Z,86.53
2023-01-17T14:41:43.784Z,86.58
2023-01-17T14:46:49.193Z,86.45
2023-01-17T14:52:03.995Z,86.55
2023-01-17T14:57:25.770Z,86.49
2023-01-17T15:02:29.518Z,86.36
2023-01-17T15:07:33.412Z,86.48
2023-01-17T15:12:39.025Z,86.27
2023-01-17T15:17:42.395Z,86.02
2023-01-17T15:22:46.216Z,86.22
2023-01-17T15:27:49.933Z,86.07
2023-01-17T15:32:53.549Z,85.88
2023-01-17T15:37:58.516Z,85.88
2023-01-17T15:43:02.322Z,85.77
2023-01-17T15:48:37.067Z,85.72
2023-01-17T15:53:42.761Z,85.67
2023-01-17T15:58:51.076Z,85.71
2023-01-17T16:03:55.616Z,85.66
2023-01-17T16:08:59.123Z,85.46
2023-01-17T16:14:02.735Z,85.49
2023-01-17T16:19:06.770Z,85.55
2023-01-17T16:24:11.312Z,85.41
2023-01-17T16:29:14.822Z,85.37
2023-01-17T16:34:18.338Z,85.39
2023-01-17T16:39:21.849Z,85.26
2023-01-17T16:44:25.367Z,85.17
2023-01-17T16:49:32.708Z,85.26
2023-01-17T16:54:36.085Z,85.23
2023-01-17T16:59:50.113Z,85.22
2023-01-17T17:04:53.890Z,85.21
2023-01-17T17:09:57.382Z,85.44
2023-01-17T17:15:00.796Z,85.26
2023-01-17T17:20:06.171Z,85.42
2023-01-17T17:25:10.960Z,85.34
2023-01-17T17:30:15.042Z,85.31
2023-01-17T17:35:18.439Z,85.34
2023-01-17T17:40:22.232Z,85.31
2023-01-17T17:45:25.884Z,85.32
2023-01-17T17:50:29.305Z,85.15
2023-01-17T17:55:33.218Z,85.14
2023-01-17T18:00:36.631Z,85.08
2023-01-17T18:05:41.786Z,85.11
2023-01-17T18:10:46.434Z,84.85
2023-01-17T18:15:49.797Z,84.70
2023-01-17T18:20:53.573Z,84.63
2023-01-17T18:25:57.075Z,84.47
2023-01-17T18:31:06.782Z,84.51
2023-01-17T18:36:12.709Z,84.34
2023-01-17T18:41:21.962Z,84.32
2023-01-17T18:46:27.286Z,84.23
2023-01-17T18:51:32.806Z,84.12
2023-01-17T18:56:36.320Z,84.32
2023-01-17T19:01:43.932Z,84.43
2023-01-17T19:06:48.554Z,84.21
2023-01-17T19:11:52.069Z,84.34
2023-01-17T19:16:57.539Z,84.19
2023-01-17T19:22:00.939Z,84.26
2023-01-17T19:27:07.316Z,84.25
2023-01-17T19:32:11.962Z,84.16
2023-01-17T19:37:15.270Z,84.27
2023-01-17T19:42:19.404Z,84.24
2023-01-17T19:47:22.812Z,84.12
2023-01-17T19:52:26.645Z,84.03
2023-01-17T19:57:37.217Z,84.17
2023-01-17T20:02:40.886Z,84.06
2023-01-17T20:07:44.769Z,84.15
2023-01-17T20:12:48.277Z,84.26
2023-01-17T20:17:51.693Z,84.15
2023-01-17T20:22:55.726Z,84.31
2023-01-17T20:27:59.427Z,84.07
2023-01-17T20:33:03.482Z,84.20
2023-01-17T20:38:07.903Z,84.22
2023-01-17T20:43:12.355Z,84.27
2023-01-17T20:48:15.863Z,84.30
2023-01-17T20:53:19.680Z,84.35
2023-01-17T20:58:23.093Z,84.34
2023-01-17T21:03:33.468Z,84.53
2023-01-17T21:08:39.214Z,84.49
2023-01-17T21:13:43.469Z,84.58
2023-01-17T21:18:48.366Z,84.66
2023-01-17T21:23:54.207Z,84.68
2023-01-17T21:29:00.313Z,84.70
2023-01-17T21:34:06.774Z,84.79
2023-01-17T21:39:19.309Z,84.89
2023-01-17T21:44:24.024Z,84.90
2023-01-17T21:49:27.537Z,85.02
2023-01-17T21:54:50.096Z,85.02
2023-01-17T21:59:53.815Z,85.10
2023-01-17T22:04:57.342Z,85.07
2023-01-17T22:10:01.064Z,85.11
2023-01-17T22:15:05.191Z,85.09
2023-01-17T22:20:10.579Z,85.08
2023-01-17T22:25:14.057Z,85.17
2023-01-17T22:30:19.825Z,85.07
2023-01-17T22:35:23.959Z,85.21
2023-01-17T22:40:28.084Z,85.10
2023-01-17T22:45:31.601Z,85.24
2023-01-17T22:50:35.125Z,85.37
2023-01-17T22:55:38.630Z,85.46
2023-01-17T23:00:42.351Z,85.52
2023-01-17T23:05:47.003Z,85.33
2023-01-17T23:11:09.146Z,85.33
2023-01-17T23:16:31.403Z,85.42
2023-01-17T23:21:54.070Z,85.37
2023-01-17T23:27:16.013Z,85.37
2023-01-17T23:32:19.425Z,85.26
2023-01-17T23:37:47.211Z,85.16
2023-01-17T23:43:10.035Z,85.33
2023-01-17T23:48:14.316Z,85.33
2023-01-17T23:53:23.263Z,85.57
2023-01-17T23:58:28.106Z,85.70
